• Join FlightAware (Why Join?)
  • Login
  • US Flag GB Flag 
15:50 EDT


 

Airport Tracker/Info


-or-


 

Live Flight TrackerFlight Track Log ✈ SKW6345 ✈ 16-Aug-2013 ✈ KBZN - KSFO

Flight Track Log - Related Links

Times and Time Zones

All times are in EDT time to prevent confusion due to time zone crossing. See the SKW6345 flight status page for this flight to view local times or setup timezone preferences in your user account.

Time Position Orientation Groundspeed Altitude Reporting Facility
EDT Latitude Longitude Course Direction KTS MPH feet Rate Location/Type
13:54 45.7006 -111.2219 245° Southwest 253 291 8,100  Level Salt Lake Center
13:55 45.7698 -111.7974 288° West  Level FlightAware Approximate
13:55 45.7117 -111.3283 279° West 263 303 9,600  Level Salt Lake Center
13:56 45.8015 -111.9392 290° West  Level FlightAware Approximate
13:56 45.7239 -111.4419 279° West 276 318 11,500  Level Salt Lake Center
13:57 45.8355 -112.0798 283° West  Level FlightAware Approximate
13:57 45.7364 -111.5581 279° West 286 329 13,300  Level Salt Lake Center
13:58 45.8213 -112.2098 226° Southwest  Level FlightAware Approximate
13:58 45.7511 -111.6753 280° West 295 339 15,100  Level Salt Lake Center
13:59 45.7856 -111.8261 288° West 329 379 16,100 1,200 Climbing Salt Lake Center
14:00 45.8142 -111.9561 288° West 340 391 17,600 1,200 Climbing Salt Lake Center
14:01 45.8436 -112.0881 288° West 347 399 18,700 1,020 Climbing Salt Lake Center
14:02 45.8333 -112.2208 264° West 355 409 19,800 840 Climbing Salt Lake Center
14:03 45.7753 -112.3342 234° Southwest 353 406 20,500 900 Climbing Salt Lake Center
14:05 45.7147 -112.4497 233° Southwest 362 417 21,700 1,020 Climbing Salt Lake Center
14:06 45.6417 -112.5894 233° Southwest 366 421 22,700 900 Climbing Salt Lake Center
14:07 45.5794 -112.7075 233° Southwest 372 428 23,600 720 Climbing Salt Lake Center
14:08 45.5158 -112.8267 233° Southwest 375 432 24,300 600 Climbing Salt Lake Center
14:09 45.4522 -112.9467 233° Southwest 379 436 24,900 660 Climbing Salt Lake Center
14:10 45.3881 -113.0656 232° Southwest 380 437 25,700 600 Climbing Salt Lake Center
14:11 45.3156 -113.2036 233° Southwest 382 440 26,200 360 Climbing Salt Lake Center
14:12 45.2500 -113.3208 232° Southwest 393 452 26,500 420 Climbing Salt Lake Center
14:13 45.1769 -113.4586 233° Southwest 394 453 27,100 480 Climbing Salt Lake Center
14:14 45.1125 -113.5775 232° Southwest 398 458 27,500 480 Climbing Salt Lake Center
14:15 45.0350 -113.7169 232° Southwest 402 463 28,100 480 Climbing Salt Lake Center
14:16 44.9697 -113.8389 233° Southwest 405 466 28,600 480 Climbing Salt Lake Center
14:17 44.9011 -113.9622 232° Southwest 407 468 29,100 480 Climbing Salt Lake Center
14:18 44.8239 -114.1033 232° Southwest 406 467 29,600 480 Climbing Salt Lake Center
14:19 44.7561 -114.2222 231° Southwest 407 468 30,100 480 Climbing Salt Lake Center
14:20 44.6786 -114.3614 232° Southwest 404 465 30,700 480 Climbing Salt Lake Center
14:21 44.6128 -114.4794 232° Southwest 401 461 31,200 480 Climbing Salt Lake Center
14:22 44.5347 -114.6156 231° Southwest 401 461 31,700 360 Climbing Salt Lake Center
14:23 44.4714 -114.7311 232° Southwest 393 452 32,000 120 Climbing Salt Lake Center
14:24 44.3933 -114.8694 232° Southwest 401 461 32,000  Level Salt Lake Center
14:25 44.3242 -114.9883 231° Southwest 408 470 32,000  Level Salt Lake Center
14:26 44.2444 -115.1281 231° Southwest 410 472 32,000  Level Salt Lake Center
14:27 44.1722 -115.2492 230° Southwest 420 483 32,000  Level Salt Lake Center
14:28 44.1044 -115.3683 232° Southwest 411 473 32,000  Level Salt Lake Center
14:29 44.0236 -115.5069 231° Southwest 409 471 32,000  Level Salt Lake Center
14:30 43.9544 -115.6258 231° Southwest 411 473 32,000  Level Salt Lake Center
14:31 43.8733 -115.7642 231° Southwest 412 474 32,000  Level Salt Lake Center
14:32 43.8036 -115.8828 231° Southwest 412 474 32,000  Level Salt Lake Center
14:33 43.7233 -116.0192 231° Southwest 409 471 32,000  Level Salt Lake Center
14:35 43.6539 -116.1361 231° Southwest 409 471 32,000  Level Salt Lake Center
14:36 43.5742 -116.2714 231° Southwest 407 468 32,000  Level Salt Lake Center
14:37 43.5050 -116.3853 230° Southwest 404 465 32,000  Level Salt Lake Center
14:38 43.4364 -116.5000 231° Southwest 405 466 32,000  Level Salt Lake Center
14:39 43.3558 -116.6319 230° Southwest 405 466 32,000  Level Salt Lake Center
14:40 43.2878 -116.7447 230° Southwest 400 460 32,000  Level Salt Lake Center
14:41 43.2075 -116.8747 230° Southwest 401 461 32,000  Level Salt Lake Center
14:42 43.1392 -116.9881 230° Southwest 402 463 32,000  Level Salt Lake Center
14:43 43.0592 -117.1172 230° Southwest 398 458 32,000  Level Salt Lake Center
14:45 42.9114 -117.3572 230° Southwest 397 457 32,000  Level Salt Lake Center
14:46 42.8425 -117.4661 229° Southwest 397 457 32,000  Level Salt Lake Center
14:47 42.7617 -117.5928 229° Southwest 397 457 32,000  Level Salt Lake Center
14:48 42.6961 -117.7039 231° Southwest 395 455 32,000  Level Salt Lake Center
14:49 42.6150 -117.8292 229° Southwest 394 453 32,000  Level Salt Lake Center
14:50 42.5256 -117.9078 213° Southwest 400 460 32,000  Level Salt Lake Center
14:51 42.4275 -117.9678 204° Southwest 404 465 32,000  Level Salt Lake Center
14:52 42.3139 -118.0375 204° Southwest 401 461 32,000  Level Salt Lake Center
14:53 42.2161 -118.0981 205° Southwest 402 463 32,000  Level Salt Lake Center
14:54 42.1108 -118.1611 204° Southwest 400 460 32,000  Level Salt Lake Center
14:55 41.9967 -118.2325 205° Southwest 404 465 32,000  Level Salt Lake Center
14:56 41.8994 -118.2892 203° Southwest 400 460 32,000  Level Salt Lake Center
14:57 41.7858 -118.3581 204° Southwest 400 460 32,000  Level Salt Lake Center
14:58 41.6886 -118.4164 204° Southwest 400 460 32,000  Level Salt Lake Center
14:59 41.5750 -118.4833 204° Southwest 399 459 32,000  Level Salt Lake Center
15:00 41.4767 -118.5425 204° Southwest 402 463 32,000  Level Salt Lake Center
15:01 41.3628 -118.6086 204° Southwest 401 461 32,000  Level Salt Lake Center
15:02 41.2647 -118.6658 204° Southwest 402 463 32,000  Level Salt Lake Center
15:03 41.1489 -118.7342 204° Southwest 405 466 32,000  Level Salt Lake Center
15:05 41.0511 -118.7917 204° Southwest 404 465 32,000  Level Salt Lake Center
15:06 40.9369 -118.8583 204° Southwest 403 464 32,000  Level Salt Lake Center
15:06 40.8922 -118.8944 211° Southwest 408 470 32,000  Level Oakland Center
15:07 40.8244 -119.0028 230° Southwest 406 467 32,000  Level Oakland Center
15:08 40.7497 -119.1364 234° Southwest 406 467 32,000  Level Oakland Center
15:09 40.6836 -119.2547 234° Southwest 403 464 32,000  Level Oakland Center
15:10 40.6169 -119.3736 234° Southwest 404 465 32,000  Level Oakland Center
15:11 40.5489 -119.4975 234° Southwest 404 465 32,000  Level Oakland Center
15:12 40.4836 -119.6119 233° Southwest 406 467 32,000  Level Oakland Center
15:13 40.4036 -119.7539 234° Southwest 406 467 32,000  Level Oakland Center
15:14 40.3358 -119.8736 233° Southwest 410 472 32,000  Level Oakland Center
15:15 40.2689 -119.9908 233° Southwest 406 467 32,000  Level Oakland Center
15:16 40.2011 -120.1097 233° Southwest 407 468 32,000  Level Oakland Center
15:17 40.1319 -120.2297 233° Southwest 413 475 32,000  Level Oakland Center
15:18 40.0642 -120.3486 233° Southwest 411 473 32,000  Level Oakland Center
15:19 39.9933 -120.4708 233° Southwest 410 472 32,000  Level Oakland Center
15:20 39.9250 -120.5892 233° Southwest 410 472 32,000  Level Oakland Center
15:22 39.8368 -120.6601 229° Southwest  Level Estimated
15:23 39.7747 -120.8461 229° Southwest 407 468 32,000  Level Oakland Center
15:24 39.7058 -120.9628 233° Southwest 407 468 32,000  Level Oakland Center
15:25 39.6369 -121.0794 233° Southwest 406 467 32,000  Level Oakland Center
15:26 39.5647 -121.2022 233° Southwest 412 474 32,000  Level Oakland Center
15:27 39.4950 -121.3178 232° Southwest 409 471 32,000  Level Oakland Center
15:28 39.4161 -121.4522 233° Southwest 408 470 32,000  Level Oakland Center
15:29 39.3464 -121.5692 232° Southwest 412 474 32,000  Level Oakland Center
15:30 39.2772 -121.6850 232° Southwest 410 472 32,000  Level Oakland Center
15:31 39.2078 -121.8000 232° Southwest 410 472 32,000  Level Oakland Center
15:32 39.1378 -121.9158 232° Southwest 410 472 32,000  Level Oakland Center
15:33 39.0672 -122.0297 231° Southwest 410 472 32,000  Level Oakland Center
15:34 38.9711 -122.1525 225° Southwest 407 468 32,000 -1,140 Level Oakland Center
15:35 38.8919 -122.2500 224° Southwest 401 461 29,700 -2,400 Descending Oakland Center
15:36 38.8008 -122.3206 211° Southwest 385 443 27,100 -2,340 Descending Oakland Center
15:37 38.7122 -122.3892 211° Southwest 375 432 24,900 -1,500 Descending Oakland Center
15:38 38.6250 -122.4558 211° Southwest 355 409 24,000 -1,080 Descending Oakland Center
15:39 38.5386 -122.5211 211° Southwest 361 415 22,700 -1,500 Descending Oakland Center
15:40 38.4589 -122.5831 211° Southwest 339 390 20,900 -2,040 Descending Oakland Center
15:41 38.3639 -122.6536 210° Southwest 331 381 18,600 -2,040 Descending Oakland Center
15:42 38.2853 -122.7136 211° Southwest 332 382 16,800 -1,800 Descending Oakland Center
15:43 38.1989 -122.7383 193° South 328 377 14,900 -1,800 Descending Oakland Center
15:44 38.1097 -122.7200 171° South 325 374 13,100 -1,800 Descending Oakland Center
15:45 38.0197 -122.6997 170° South 330 380 11,200 -1,080 Descending Oakland Center
15:46 37.9178 -122.6775 170° South 322 371 11,000 -120 Descending Oakland Center
15:47 37.8483 -122.6172 146° Southeast 318 366 11,000  Level Oakland Center
15:48 37.7947 -122.5611 140° Southeast 261 300 11,000  Level Oakland Center
15:49 37.7503 -122.5133 140° Southeast 218 251 11,000  Level Oakland Center
15:50 37.7125 -122.4519 128° Southeast 234 269 11,000 -540 Level Oakland Center
15:51 37.6919 -122.3642 106° East 220 253 9,900 -1,380 Descending Oakland Center
15:52 37.6833 -122.3167 103° East 213 245 8,700 -1,860 Descending Northern Cal TRACON
15:53 37.6667 -122.2500 108° East 220 253 6,900 -1,380 Descending Northern Cal TRACON
15:54 37.6333 -122.1833 122° Southeast 203 234 6,000 -480 Descending Northern Cal TRACON
15:55 37.6167 -122.1167 107° East 198 228 6,000 -60 Level Northern Cal TRACON
15:56 37.5833 -122.0667 130° Southeast 199 229 5,900 -720 Descending Northern Cal TRACON
15:57 37.5500 -122.1000 218° Southwest 202 232 4,600 -1,260 Descending Northern Cal TRACON
15:58 37.5447 -122.1289 257° West 201 231 3,900 -1,260 Descending Oakland Center
15:59 37.5525 -122.2086 277° West 195 224 2,700 -960 Descending Oakland Center
16:00 37.5792 -122.2719 298° West 193 222 2,000 -900 Descending Oakland Center
16:01 37.5967 -122.3183 295° West 178 205 900 -900 Descending Oakland Center
16:02 37.6144 -122.3592 299° West 151 174 200 -720 Descending Oakland Center